Metar z połowy godziny Komunikat METAR ze strony awiacja.imgw.pl Metar G30 EPIR METAR EPIR 230800Z 07008KT 3500 BR BKN021 M06/M08 Q1009 RMK M066 091 7/7=